createdAt,value
2023-05-02T00:00:55.246Z,25.61
2023-05-02T00:01:55.368Z,25.61
2023-05-02T00:02:55.461Z,25.60
2023-05-02T00:03:55.492Z,25.61
2023-05-02T00:04:55.379Z,25.60
2023-05-02T00:05:55.407Z,25.60
2023-05-02T00:06:55.571Z,25.61
2023-05-02T00:07:55.492Z,25.60
2023-05-02T00:08:55.523Z,25.60
2023-05-02T00:09:55.521Z,25.60
2023-05-02T00:10:55.580Z,25.60
2023-05-02T00:11:55.625Z,25.60
2023-05-02T00:12:55.628Z,25.60
2023-05-02T00:13:55.695Z,25.60
2023-05-02T00:14:55.796Z,25.60
2023-05-02T00:15:55.731Z,25.60
2023-05-02T00:16:55.789Z,25.59
2023-05-02T00:17:55.881Z,25.59
2023-05-02T00:18:55.852Z,25.60
2023-05-02T00:19:55.874Z,25.59
2023-05-02T00:20:55.922Z,25.60
2023-05-02T00:21:55.967Z,25.59
2023-05-02T00:22:56.015Z,25.59
2023-05-02T00:23:56.068Z,25.60
2023-05-02T00:24:56.063Z,25.59
2023-05-02T00:25:56.118Z,25.59
2023-05-02T00:26:56.171Z,25.60
2023-05-02T00:27:56.194Z,25.59
2023-05-02T00:28:56.248Z,25.59
2023-05-02T00:29:56.233Z,25.59
2023-05-02T00:30:56.299Z,25.59
2023-05-02T00:31:56.279Z,25.59
2023-05-02T00:32:56.415Z,25.59
2023-05-02T00:33:56.358Z,25.59
2023-05-02T00:34:56.390Z,25.59
2023-05-02T00:35:56.560Z,25.59
2023-05-02T00:36:56.480Z,25.59
2023-05-02T00:37:56.514Z,25.59
2023-05-02T00:38:56.551Z,25.59
2023-05-02T00:39:56.602Z,25.59
2023-05-02T00:40:56.601Z,25.59
2023-05-02T00:41:56.657Z,25.59
2023-05-02T00:42:56.690Z,25.59
2023-05-02T00:43:56.698Z,25.59
2023-05-02T00:44:56.748Z,25.59
2023-05-02T00:45:56.783Z,25.59
2023-05-02T00:46:56.922Z,25.59
2023-05-02T00:47:56.822Z,25.59
2023-05-02T00:48:56.837Z,25.59
2023-05-02T00:49:56.934Z,25.58
2023-05-02T00:50:56.917Z,25.59
2023-05-02T00:51:56.940Z,25.59
2023-05-02T00:52:56.990Z,25.59
2023-05-02T00:53:56.956Z,25.59
2023-05-02T00:54:56.949Z,25.59
2023-05-02T00:55:56.961Z,25.58
2023-05-02T00:56:56.969Z,25.59
2023-05-02T00:57:56.942Z,25.58
2023-05-02T00:58:56.949Z,25.59
2023-05-02T00:59:57.041Z,25.58
2023-05-02T01:00:56.989Z,25.58
2023-05-02T01:01:57.098Z,25.58
2023-05-02T01:02:57.125Z,25.57
2023-05-02T01:03:57.175Z,25.58
2023-05-02T01:04:57.133Z,25.58
2023-05-02T01:05:57.141Z,25.58
2023-05-02T01:06:57.165Z,25.57
2023-05-02T01:07:57.219Z,25.58
2023-05-02T01:08:57.239Z,25.59
2023-05-02T01:09:57.621Z,25.59
2023-05-02T01:10:57.328Z,25.59
2023-05-02T01:11:57.366Z,25.58
2023-05-02T01:12:57.389Z,25.58
2023-05-02T01:13:57.440Z,25.58
2023-05-02T01:14:57.413Z,25.58
2023-05-02T01:15:57.535Z,25.57
2023-05-02T01:16:57.460Z,25.57
2023-05-02T01:17:57.547Z,25.58
2023-05-02T01:18:57.527Z,25.59
2023-05-02T01:19:57.638Z,25.57
2023-05-02T01:20:57.572Z,25.58
2023-05-02T01:21:57.546Z,25.57
2023-05-02T01:22:57.577Z,25.57
2023-05-02T01:23:57.587Z,25.57
2023-05-02T01:24:57.592Z,25.57
2023-05-02T01:25:57.628Z,25.57
2023-05-02T01:26:57.618Z,25.57
2023-05-02T01:27:57.642Z,25.57
2023-05-02T01:28:57.646Z,25.58
2023-05-02T01:29:57.724Z,25.57
2023-05-02T01:30:57.638Z,25.57
2023-05-02T01:31:57.719Z,25.57
2023-05-02T01:32:57.735Z,25.57
2023-05-02T01:33:57.666Z,25.57
2023-05-02T01:34:57.673Z,25.57
2023-05-02T01:35:57.715Z,25.57
2023-05-02T01:36:57.731Z,25.57
2023-05-02T01:37:57.858Z,25.57
2023-05-02T01:38:57.875Z,25.57
2023-05-02T01:39:57.900Z,25.57
2023-05-02T01:40:57.826Z,25.56
2023-05-02T01:41:57.845Z,25.57
2023-05-02T01:42:57.858Z,25.57
2023-05-02T01:43:57.840Z,25.57
2023-05-02T01:44:57.796Z,25.57
2023-05-02T01:45:57.828Z,25.57
2023-05-02T01:46:57.839Z,25.56
2023-05-02T01:47:57.903Z,25.57
2023-05-02T01:48:57.865Z,25.56
2023-05-02T01:49:58.016Z,25.56
2023-05-02T01:50:57.840Z,25.56
2023-05-02T01:51:57.856Z,25.57
2023-05-02T01:52:57.844Z,25.57
2023-05-02T01:53:57.903Z,25.56
2023-05-02T01:54:57.899Z,25.57
2023-05-02T01:55:57.866Z,25.57
2023-05-02T01:56:57.902Z,25.56
2023-05-02T01:57:57.887Z,25.57
2023-05-02T01:58:57.926Z,25.57
2023-05-02T01:59:58.174Z,25.57
2023-05-02T02:00:57.919Z,25.57
2023-05-02T02:01:57.926Z,25.56
2023-05-02T02:02:57.984Z,25.56
2023-05-02T02:03:57.979Z,25.55
2023-05-02T02:04:57.937Z,25.56
2023-05-02T02:05:58.025Z,25.56
2023-05-02T02:06:57.915Z,25.56
2023-05-02T02:07:57.949Z,25.56
2023-05-02T02:08:57.952Z,25.56
2023-05-02T02:09:58.145Z,25.56
2023-05-02T02:10:58.002Z,25.56
2023-05-02T02:11:58.029Z,25.57
2023-05-02T02:12:58.120Z,25.55
2023-05-02T02:13:58.134Z,25.56
2023-05-02T02:14:58.194Z,25.56
2023-05-02T02:15:58.196Z,25.55
2023-05-02T02:16:58.297Z,25.56
2023-05-02T02:17:58.312Z,25.56
2023-05-02T02:18:58.318Z,25.55
2023-05-02T02:19:58.434Z,25.56
2023-05-02T02:20:58.392Z,25.56
2023-05-02T02:21:58.419Z,25.55
2023-05-02T02:22:58.492Z,25.55
2023-05-02T02:23:58.527Z,25.55
2023-05-02T02:24:58.578Z,25.56
2023-05-02T02:25:58.555Z,25.54
2023-05-02T02:26:58.578Z,25.55
2023-05-02T02:27:58.679Z,25.55
2023-05-02T02:28:58.639Z,25.55
2023-05-02T02:29:58.901Z,25.54
2023-05-02T02:30:58.778Z,25.56
2023-05-02T02:31:58.756Z,25.54
2023-05-02T02:32:58.809Z,25.55
2023-05-02T02:33:58.822Z,25.55
2023-05-02T02:34:58.873Z,25.55
2023-05-02T02:35:58.890Z,25.55
2023-05-02T02:36:58.916Z,25.55
2023-05-02T02:37:58.935Z,25.55
2023-05-02T02:38:59.084Z,25.55
2023-05-02T02:39:59.230Z,25.55
2023-05-02T02:40:59.141Z,25.54
2023-05-02T02:41:59.119Z,25.55
2023-05-02T02:42:59.147Z,25.54
2023-05-02T02:43:59.179Z,25.54
2023-05-02T02:44:59.185Z,25.54
2023-05-02T02:45:59.328Z,25.54
2023-05-02T02:46:59.225Z,25.53
2023-05-02T02:47:59.292Z,25.54
2023-05-02T02:48:59.253Z,25.54
2023-05-02T02:49:59.488Z,25.54
2023-05-02T02:50:59.252Z,25.54
2023-05-02T02:51:59.304Z,25.54
2023-05-02T02:52:59.318Z,25.54
2023-05-02T02:53:59.371Z,25.54
2023-05-02T02:54:59.417Z,25.54
2023-05-02T02:55:59.450Z,25.54
2023-05-02T02:56:59.495Z,25.54
2023-05-02T02:57:59.493Z,25.54
2023-05-02T02:58:59.574Z,25.54
2023-05-02T02:59:59.883Z,25.54
2023-05-02T03:00:59.620Z,25.54
2023-05-02T03:01:59.687Z,25.54
2023-05-02T03:02:59.732Z,25.54
2023-05-02T03:03:59.768Z,25.54
2023-05-02T03:04:59.773Z,25.54
2023-05-02T03:05:59.832Z,25.53
2023-05-02T03:06:59.876Z,25.54
2023-05-02T03:07:59.853Z,25.53
2023-05-02T03:08:59.937Z,25.53
2023-05-02T03:10:00.291Z,25.53
2023-05-02T03:10:59.970Z,25.53
2023-05-02T03:11:59.985Z,25.53
2023-05-02T03:13:00.028Z,25.53
2023-05-02T03:14:00.116Z,25.53
2023-05-02T03:15:00.108Z,25.53
2023-05-02T03:16:00.152Z,25.53
2023-05-02T03:17:00.148Z,25.53
2023-05-02T03:18:00.231Z,25.53
2023-05-02T03:19:00.134Z,25.53
2023-05-02T03:20:00.307Z,25.53
2023-05-02T03:21:00.185Z,25.53
2023-05-02T03:22:00.229Z,25.53
2023-05-02T03:23:00.287Z,25.53
2023-05-02T03:24:00.324Z,25.53
2023-05-02T03:25:00.365Z,25.53
2023-05-02T03:26:00.380Z,25.52
2023-05-02T03:27:00.410Z,25.53
2023-05-02T03:28:00.433Z,25.53
2023-05-02T03:29:00.464Z,25.53
2023-05-02T03:30:00.780Z,25.53
2023-05-02T03:31:00.566Z,25.52
2023-05-02T03:32:00.494Z,25.52
2023-05-02T03:33:00.616Z,25.52
2023-05-02T03:34:00.590Z,25.52
2023-05-02T03:35:00.580Z,25.52
2023-05-02T03:36:00.643Z,25.52
2023-05-02T03:37:00.648Z,25.52
2023-05-02T03:38:00.692Z,25.52
2023-05-02T03:39:00.742Z,25.52
2023-05-02T03:40:01.094Z,25.52
2023-05-02T03:41:00.799Z,25.52
2023-05-02T03:42:00.836Z,25.52
2023-05-02T03:43:00.854Z,25.51
2023-05-02T03:44:00.936Z,25.51
2023-05-02T03:45:00.934Z,25.51
2023-05-02T03:46:00.991Z,25.51
2023-05-02T03:47:01.088Z,25.52
2023-05-02T03:48:01.226Z,25.52
2023-05-02T03:49:01.129Z,25.51
2023-05-02T03:50:01.424Z,25.52
2023-05-02T03:51:01.196Z,25.52
2023-05-02T03:52:01.279Z,25.52
2023-05-02T03:53:01.268Z,25.52
2023-05-02T03:54:01.279Z,25.53
2023-05-02T03:55:01.305Z,25.53
2023-05-02T03:56:01.334Z,25.53
2023-05-02T03:57:01.353Z,25.54
2023-05-02T03:58:01.396Z,25.54
2023-05-02T03:59:01.415Z,25.54
2023-05-02T04:00:01.769Z,25.55
2023-05-02T04:01:01.452Z,25.56
2023-05-02T04:02:01.532Z,25.57
2023-05-02T04:03:01.610Z,25.57
2023-05-02T04:04:01.586Z,25.58
2023-05-02T04:05:01.606Z,25.59
2023-05-02T04:06:01.658Z,25.60
2023-05-02T04:07:01.672Z,25.62
2023-05-02T04:08:01.699Z,25.64
2023-05-02T04:09:01.748Z,25.65
2023-05-02T04:10:02.066Z,25.66
2023-05-02T04:11:01.821Z,25.67
2023-05-02T04:12:01.886Z,25.68
2023-05-02T04:13:01.887Z,25.70
2023-05-02T04:14:01.975Z,25.70
2023-05-02T04:15:02.007Z,25.72
2023-05-02T04:16:02.066Z,25.74
2023-05-02T04:17:02.152Z,25.75
2023-05-02T04:18:02.226Z,25.76
2023-05-02T04:19:02.290Z,25.77
2023-05-02T04:20:05.041Z,25.79
2023-05-02T04:21:02.354Z,25.80
2023-05-02T04:22:02.308Z,25.81
2023-05-02T04:23:02.327Z,25.83
2023-05-02T04:24:02.351Z,25.84
2023-05-02T04:25:02.299Z,25.85
2023-05-02T04:26:02.303Z,25.86
2023-05-02T04:27:02.301Z,25.88
2023-05-02T04:28:02.274Z,25.88
2023-05-02T04:29:02.278Z,25.90
2023-05-02T04:30:02.591Z,25.91
2023-05-02T04:31:02.297Z,25.91
2023-05-02T04:32:02.259Z,25.91
2023-05-02T04:33:02.305Z,25.93
2023-05-02T04:34:02.247Z,25.94
2023-05-02T04:35:02.223Z,25.94
2023-05-02T04:36:02.218Z,25.95
2023-05-02T04:37:02.209Z,25.95
2023-05-02T04:38:02.206Z,25.96
2023-05-02T04:39:02.216Z,25.96
2023-05-02T04:40:02.399Z,25.98
2023-05-02T04:41:09.111Z,25.99
2023-05-02T04:42:03.169Z,25.98
2023-05-02T04:43:02.161Z,26.00
2023-05-02T04:44:02.178Z,26.00
2023-05-02T04:45:02.143Z,26.01
2023-05-02T04:46:02.202Z,26.01
2023-05-02T04:47:02.157Z,26.01
2023-05-02T04:48:02.178Z,26.01
2023-05-02T04:49:02.115Z,26.02
2023-05-02T04:50:02.435Z,26.02
2023-05-02T04:51:02.156Z,26.02
2023-05-02T04:52:02.106Z,26.02
2023-05-02T04:53:02.125Z,26.02
2023-05-02T04:54:02.151Z,26.02
2023-05-02T04:55:02.211Z,26.02
2023-05-02T04:56:02.334Z,26.02
2023-05-02T04:57:02.330Z,26.03
2023-05-02T04:58:02.339Z,26.02
2023-05-02T04:59:02.387Z,26.02
2023-05-02T05:00:02.567Z,26.03
2023-05-02T05:01:09.516Z,26.04
2023-05-02T05:02:02.515Z,26.02
2023-05-02T05:03:02.569Z,26.03
2023-05-02T05:04:02.596Z,26.03
2023-05-02T05:05:02.449Z,26.03
2023-05-02T05:06:02.571Z,26.02
2023-05-02T05:07:02.395Z,26.03
2023-05-02T05:08:02.423Z,26.03
2023-05-02T05:09:02.411Z,26.03
2023-05-02T05:10:02.777Z,26.03
2023-05-02T05:11:02.411Z,26.03
2023-05-02T05:12:02.384Z,26.04
2023-05-02T05:13:02.378Z,26.03
2023-05-02T05:14:02.403Z,26.03
2023-05-02T05:15:02.411Z,26.04
2023-05-02T05:16:02.433Z,26.03
2023-05-02T05:17:02.353Z,26.02
2023-05-02T05:18:02.393Z,26.03
2023-05-02T05:19:02.383Z,26.03
2023-05-02T05:20:02.526Z,26.03
2023-05-02T05:21:02.340Z,26.03
2023-05-02T05:22:02.336Z,26.03
2023-05-02T05:23:02.300Z,26.02
2023-05-02T05:24:02.326Z,26.03
2023-05-02T05:25:02.314Z,26.02
2023-05-02T05:26:02.276Z,26.02
2023-05-02T05:27:02.307Z,26.03
2023-05-02T05:28:02.295Z,26.02
2023-05-02T05:29:02.257Z,26.02
2023-05-02T05:30:02.580Z,26.02
2023-05-02T05:31:02.256Z,26.02
2023-05-02T05:32:02.342Z,26.01
2023-05-02T05:33:02.318Z,26.01
2023-05-02T05:34:02.665Z,26.02
2023-05-02T05:35:02.240Z,26.01
2023-05-02T05:36:02.211Z,26.00
2023-05-02T05:37:02.233Z,25.96
2023-05-02T05:38:02.254Z,25.92
2023-05-02T05:39:02.600Z,25.87
2023-05-02T05:40:02.712Z,25.83
2023-05-02T05:41:02.276Z,25.82
2023-05-02T05:42:02.396Z,25.80
2023-05-02T05:43:02.344Z,25.79
2023-05-02T05:44:02.379Z,25.79
2023-05-02T05:45:02.387Z,25.78
2023-05-02T05:46:09.488Z,25.79
2023-05-02T05:47:02.473Z,25.78
2023-05-02T05:48:02.474Z,25.79
2023-05-02T05:49:02.650Z,25.80
2023-05-02T05:50:02.708Z,25.79
2023-05-02T05:51:02.729Z,25.80
2023-05-02T05:52:03.057Z,25.79
2023-05-02T05:53:02.367Z,25.77
2023-05-02T05:54:02.382Z,25.78
2023-05-02T05:55:02.347Z,25.79
2023-05-02T05:56:02.381Z,25.79
2023-05-02T05:57:02.363Z,25.81
2023-05-02T05:58:02.327Z,25.81
2023-05-02T05:59:02.347Z,25.83
2023-05-02T06:00:02.631Z,25.83
2023-05-02T06:01:02.313Z,25.85
2023-05-02T06:02:02.329Z,25.86
2023-05-02T06:03:02.374Z,25.87
2023-05-02T06:04:02.417Z,25.88
2023-05-02T06:05:02.825Z,25.90
2023-05-02T06:06:02.334Z,25.91
2023-05-02T06:07:02.278Z,25.92
2023-05-02T06:08:02.273Z,25.92
2023-05-02T06:09:02.244Z,25.92
2023-05-02T06:10:02.518Z,25.93
2023-05-02T06:11:03.210Z,25.94
2023-05-02T06:12:02.229Z,25.96
2023-05-02T06:13:02.231Z,25.96
2023-05-02T06:14:02.188Z,25.96
2023-05-02T06:15:02.653Z,25.97
2023-05-02T06:16:02.228Z,25.97
2023-05-02T06:17:02.191Z,25.96
2023-05-02T06:18:02.273Z,25.97
2023-05-02T06:19:02.177Z,25.97
2023-05-02T06:20:02.826Z,25.98
2023-05-02T06:21:02.189Z,26.00
2023-05-02T06:22:02.217Z,26.02
2023-05-02T06:23:02.245Z,26.02
2023-05-02T06:24:02.169Z,26.03
2023-05-02T06:25:02.109Z,26.05
2023-05-02T06:26:02.179Z,26.05
2023-05-02T06:27:02.125Z,26.07
2023-05-02T06:28:02.148Z,26.07
2023-05-02T06:29:02.160Z,26.08
2023-05-02T06:30:03.102Z,26.07
2023-05-02T06:31:02.394Z,26.08
2023-05-02T06:32:02.312Z,26.08
2023-05-02T06:33:02.370Z,26.09
2023-05-02T06:34:02.376Z,26.09
2023-05-02T06:35:02.392Z,26.10
2023-05-02T06:36:02.525Z,26.09
2023-05-02T06:37:02.406Z,26.09
2023-05-02T06:38:03.172Z,26.07
2023-05-02T06:39:02.428Z,26.05
2023-05-02T06:40:02.771Z,26.02
2023-05-02T06:41:02.431Z,26.00
2023-05-02T06:42:02.447Z,25.98
2023-05-02T06:43:03.499Z,25.96
2023-05-02T06:44:02.396Z,25.96
2023-05-02T06:45:02.397Z,25.97
2023-05-02T06:46:02.415Z,25.99
2023-05-02T06:47:02.430Z,26.00
2023-05-02T06:48:02.437Z,26.02
2023-05-02T06:49:02.372Z,26.05
2023-05-02T06:50:02.891Z,26.08
2023-05-02T06:51:02.332Z,26.09
2023-05-02T06:52:02.383Z,26.08
2023-05-02T06:53:02.338Z,26.09
2023-05-02T06:54:02.428Z,26.09
2023-05-02T06:55:02.731Z,26.10
2023-05-02T06:56:02.362Z,26.10
2023-05-02T06:57:02.378Z,26.10
2023-05-02T06:58:02.416Z,26.10
2023-05-02T06:59:02.379Z,26.11
2023-05-02T07:00:03.002Z,26.11
2023-05-02T07:01:02.543Z,26.12
2023-05-02T07:02:05.164Z,26.13
2023-05-02T07:03:02.564Z,26.12
2023-05-02T07:04:02.583Z,26.13
2023-05-02T07:05:02.498Z,26.13
2023-05-02T07:06:02.577Z,26.14
2023-05-02T07:07:02.477Z,26.15
2023-05-02T07:08:02.508Z,26.15
2023-05-02T07:09:02.473Z,26.15
2023-05-02T07:10:02.872Z,26.17
2023-05-02T07:11:02.456Z,26.18
2023-05-02T07:12:04.621Z,26.19
2023-05-02T07:13:02.448Z,26.19
2023-05-02T07:14:02.453Z,26.21
2023-05-02T07:15:02.666Z,26.22
2023-05-02T07:16:02.486Z,26.24
2023-05-02T07:17:03.046Z,26.25
2023-05-02T07:18:02.478Z,26.28
2023-05-02T07:19:02.418Z,26.30
2023-05-02T07:20:02.722Z,26.32
2023-05-02T07:21:02.398Z,26.32
2023-05-02T07:22:02.409Z,26.33
2023-05-02T07:23:02.370Z,26.35
2023-05-02T07:24:02.365Z,26.36
2023-05-02T07:25:02.670Z,26.37
2023-05-02T07:26:03.856Z,26.38
2023-05-02T07:27:02.348Z,26.40
2023-05-02T07:28:02.405Z,26.42
2023-05-02T07:29:02.345Z,26.43
2023-05-02T07:30:03.096Z,26.45
2023-05-02T07:31:02.645Z,26.46
2023-05-02T07:32:02.366Z,26.45
2023-05-02T07:33:02.373Z,26.46
2023-05-02T07:34:02.301Z,26.46
2023-05-02T07:35:02.287Z,26.44
2023-05-02T07:36:02.697Z,26.40
2023-05-02T07:37:02.296Z,26.38
2023-05-02T07:38:02.295Z,26.37
2023-05-02T07:39:02.270Z,26.37
2023-05-02T07:40:02.705Z,26.37
2023-05-02T07:41:02.672Z,26.33
2023-05-02T07:42:02.224Z,26.27
2023-05-02T07:43:02.239Z,26.21
2023-05-02T07:44:02.244Z,26.18
2023-05-02T07:45:02.231Z,26.12
2023-05-02T07:46:02.260Z,26.05
2023-05-02T07:47:02.194Z,25.95
2023-05-02T07:48:02.311Z,25.83
2023-05-02T07:49:02.188Z,25.73
2023-05-02T07:50:02.574Z,25.66
2023-05-02T07:51:02.204Z,25.60
2023-05-02T07:52:02.207Z,25.56
2023-05-02T07:53:02.152Z,25.52
2023-05-02T07:54:02.143Z,25.49
2023-05-02T07:55:02.152Z,25.48
2023-05-02T07:56:02.178Z,25.46
2023-05-02T07:57:02.324Z,25.45
2023-05-02T07:58:02.133Z,25.44
2023-05-02T07:59:03.702Z,25.44
2023-05-02T08:00:02.446Z,25.43
2023-05-02T08:01:02.125Z,25.44
2023-05-02T08:02:02.119Z,25.45
2023-05-02T08:03:02.198Z,25.47
2023-05-02T08:04:02.310Z,25.48
2023-05-02T08:05:02.110Z,25.49
2023-05-02T08:06:02.150Z,25.49
2023-05-02T08:07:02.068Z,25.50
2023-05-02T08:08:02.089Z,25.50
2023-05-02T08:09:02.057Z,25.50
2023-05-02T08:10:02.340Z,25.51
2023-05-02T08:11:02.021Z,25.50
2023-05-02T08:12:02.038Z,25.52
2023-05-02T08:13:02.047Z,25.52
2023-05-02T08:14:02.013Z,25.52
2023-05-02T08:15:02.013Z,25.53
2023-05-02T08:16:02.093Z,25.53
2023-05-02T08:17:02.006Z,25.52
2023-05-02T08:18:02.043Z,25.52
2023-05-02T08:19:01.974Z,25.51
2023-05-02T08:20:02.327Z,25.49
2023-05-02T08:21:01.998Z,25.48
2023-05-02T08:22:02.002Z,25.48
2023-05-02T08:23:01.971Z,25.49
2023-05-02T08:24:01.976Z,25.47
2023-05-02T08:25:01.953Z,25.46
2023-05-02T08:26:01.968Z,25.43
2023-05-02T08:27:01.940Z,25.44
2023-05-02T08:28:01.957Z,25.43
2023-05-02T08:29:01.932Z,25.43
2023-05-02T08:30:01.947Z,25.44
2023-05-02T08:31:01.926Z,25.44
2023-05-02T08:32:01.956Z,25.46
2023-05-02T08:33:01.929Z,25.48
2023-05-02T08:34:01.895Z,25.51
2023-05-02T08:35:01.907Z,25.54
2023-05-02T08:36:01.896Z,25.56
2023-05-02T08:37:01.860Z,25.58
2023-05-02T08:38:01.897Z,25.59
2023-05-02T08:39:01.848Z,25.61
2023-05-02T08:40:02.206Z,25.63
2023-05-02T08:41:02.206Z,25.63
2023-05-02T08:42:01.861Z,25.65
2023-05-02T08:43:01.914Z,25.66
2023-05-02T08:44:01.927Z,25.68
2023-05-02T08:45:01.949Z,25.71
2023-05-02T08:46:02.202Z,25.73
2023-05-02T08:47:02.109Z,25.74
2023-05-02T08:48:02.119Z,25.76
2023-05-02T08:49:02.047Z,25.79
2023-05-02T08:50:02.586Z,25.79
2023-05-02T08:51:02.110Z,25.79
2023-05-02T08:52:02.190Z,25.79
2023-05-02T08:53:02.166Z,25.79
2023-05-02T08:54:02.164Z,25.79
2023-05-02T08:55:02.696Z,25.76
2023-05-02T08:56:02.241Z,25.74
2023-05-02T08:57:02.250Z,25.68
2023-05-02T08:58:02.278Z,25.62
2023-05-02T08:59:02.309Z,25.55
2023-05-02T09:00:02.516Z,25.48
2023-05-02T09:01:02.464Z,25.42
2023-05-02T09:02:02.408Z,25.37
2023-05-02T09:03:02.485Z,25.34
2023-05-02T09:04:02.481Z,25.31
2023-05-02T09:05:02.665Z,25.28
2023-05-02T09:06:02.519Z,25.27
2023-05-02T09:07:02.478Z,25.26
2023-05-02T09:08:02.482Z,25.25
2023-05-02T09:09:02.506Z,25.23
2023-05-02T09:10:02.556Z,25.23
2023-05-02T09:11:02.625Z,25.23
2023-05-02T09:12:02.661Z,25.25
2023-05-02T09:13:02.739Z,25.27
2023-05-02T09:14:02.809Z,25.30
2023-05-02T09:15:02.843Z,25.32
2023-05-02T09:16:03.081Z,25.33
2023-05-02T09:17:03.041Z,25.36
2023-05-02T09:18:03.161Z,25.38
2023-05-02T09:19:03.098Z,25.40
2023-05-02T09:20:03.123Z,25.42
2023-05-02T09:21:03.233Z,25.45
2023-05-02T09:22:03.209Z,25.47
2023-05-02T09:23:03.267Z,25.49
2023-05-02T09:24:03.513Z,25.48
2023-05-02T09:25:03.398Z,25.45
2023-05-02T09:26:03.408Z,25.45
2023-05-02T09:27:03.609Z,25.46
2023-05-02T09:28:03.541Z,25.47
2023-05-02T09:29:03.609Z,25.47
2023-05-02T09:30:03.669Z,25.47
2023-05-02T09:31:03.711Z,25.48
2023-05-02T09:32:03.747Z,25.49
2023-05-02T09:33:03.868Z,25.50
2023-05-02T09:34:03.789Z,25.53
2023-05-02T09:35:03.857Z,25.54
2023-05-02T09:36:03.905Z,25.56
2023-05-02T09:37:04.221Z,25.57
2023-05-02T09:38:04.040Z,25.59
2023-05-02T09:39:03.994Z,25.61
2023-05-02T09:40:04.046Z,25.63
2023-05-02T09:41:04.248Z,25.63
2023-05-02T09:42:04.115Z,25.64
2023-05-02T09:43:04.099Z,25.62
2023-05-02T09:44:04.142Z,25.63
2023-05-02T09:45:04.167Z,25.64
2023-05-02T09:46:04.265Z,25.64
2023-05-02T09:47:04.257Z,25.63
2023-05-02T09:48:04.338Z,25.61
2023-05-02T09:49:04.341Z,25.57
2023-05-02T09:50:04.381Z,25.53
2023-05-02T09:51:04.424Z,25.50
2023-05-02T09:52:04.462Z,25.48
2023-05-02T09:53:04.553Z,25.45
2023-05-02T09:54:04.590Z,25.42
2023-05-02T09:55:04.648Z,25.38
2023-05-02T09:56:04.706Z,25.34
2023-05-02T09:57:04.729Z,25.29
2023-05-02T09:58:04.815Z,25.25
2023-05-02T09:59:04.845Z,25.23
2023-05-02T10:00:04.904Z,25.22
2023-05-02T10:01:05.006Z,25.22
2023-05-02T10:02:05.058Z,25.23
2023-05-02T10:03:05.167Z,25.23
2023-05-02T10:04:05.174Z,25.24
2023-05-02T10:05:05.193Z,25.24
2023-05-02T10:06:05.790Z,25.23
2023-05-02T10:07:05.323Z,25.23
2023-05-02T10:08:05.367Z,25.23
2023-05-02T10:09:05.441Z,25.22
2023-05-02T10:10:05.472Z,25.22
2023-05-02T10:11:05.542Z,25.22
2023-05-02T10:12:05.597Z,25.22
2023-05-02T10:13:05.626Z,25.21
2023-05-02T10:14:05.612Z,25.21
2023-05-02T10:15:05.602Z,25.20
2023-05-02T10:16:05.714Z,25.18
2023-05-02T10:17:05.671Z,25.18
2023-05-02T10:18:05.754Z,25.18
2023-05-02T10:19:05.729Z,25.18
2023-05-02T10:20:05.758Z,25.17
2023-05-02T10:21:05.777Z,25.17
2023-05-02T10:22:05.784Z,25.18
2023-05-02T10:23:05.810Z,25.18
2023-05-02T10:24:05.890Z,25.18
2023-05-02T10:25:05.920Z,25.18
2023-05-02T10:26:05.981Z,25.18
2023-05-02T10:27:06.280Z,25.17
2023-05-02T10:28:06.075Z,25.16
2023-05-02T10:29:06.131Z,25.14
2023-05-02T10:30:06.201Z,25.14
2023-05-02T10:31:06.259Z,25.12
2023-05-02T10:32:06.498Z,25.13
2023-05-02T10:33:06.380Z,25.13
2023-05-02T10:34:06.345Z,25.12
2023-05-02T10:35:06.377Z,25.12
2023-05-02T10:36:06.751Z,25.12
2023-05-02T10:37:06.465Z,25.10
2023-05-02T10:38:06.527Z,25.04
2023-05-02T10:39:06.571Z,25.01
2023-05-02T10:40:06.666Z,24.99
2023-05-02T10:41:06.659Z,24.98
2023-05-02T10:42:06.803Z,25.00
2023-05-02T10:43:06.651Z,25.02
2023-05-02T10:44:06.633Z,25.05
2023-05-02T10:45:06.656Z,25.08
2023-05-02T10:46:06.725Z,25.09
2023-05-02T10:47:06.706Z,25.13
2023-05-02T10:48:06.777Z,25.15
2023-05-02T10:49:06.850Z,25.16
2023-05-02T10:50:06.847Z,25.14
2023-05-02T10:51:06.870Z,25.12
2023-05-02T10:52:07.305Z,25.13
2023-05-02T10:53:06.870Z,25.12
2023-05-02T10:54:06.906Z,25.14
2023-05-02T10:55:06.900Z,25.16
2023-05-02T10:56:06.897Z,25.16
2023-05-02T10:57:06.964Z,25.17
2023-05-02T10:58:06.932Z,25.16
2023-05-02T10:59:06.947Z,25.15
2023-05-02T11:00:06.955Z,25.15
2023-05-02T11:01:07.022Z,25.15
2023-05-02T11:02:07.400Z,25.15
2023-05-02T11:03:07.149Z,25.16
2023-05-02T11:04:07.017Z,25.19
2023-05-02T11:05:07.119Z,25.22
2023-05-02T11:06:07.077Z,25.25
2023-05-02T11:07:07.037Z,25.28
2023-05-02T11:08:07.072Z,25.30
2023-05-02T11:09:07.054Z,25.32
2023-05-02T11:10:07.128Z,25.35
2023-05-02T11:11:07.098Z,25.36
2023-05-02T11:12:07.097Z,25.38
2023-05-02T11:13:07.074Z,25.36
2023-05-02T11:14:07.094Z,25.35
2023-05-02T11:15:07.121Z,25.35
2023-05-02T11:16:07.210Z,25.35
2023-05-02T11:17:07.149Z,25.36
2023-05-02T11:18:07.193Z,25.38
2023-05-02T11:19:07.164Z,25.39
2023-05-02T11:20:07.201Z,25.40
2023-05-02T11:21:07.239Z,25.39
2023-05-02T11:22:07.337Z,25.40
2023-05-02T11:23:07.346Z,25.41
2023-05-02T11:24:07.378Z,25.42
2023-05-02T11:25:07.386Z,25.42
2023-05-02T11:26:07.412Z,25.42
2023-05-02T11:27:07.388Z,25.44
2023-05-02T11:28:07.398Z,25.47
2023-05-02T11:29:07.387Z,25.52
2023-05-02T11:30:07.446Z,25.56
2023-05-02T11:31:07.437Z,25.60
2023-05-02T11:32:07.882Z,25.63
2023-05-02T11:33:07.553Z,25.66
2023-05-02T11:34:07.537Z,25.69
2023-05-02T11:35:07.587Z,25.70
2023-05-02T11:36:07.619Z,25.70
2023-05-02T11:37:07.812Z,25.69
2023-05-02T11:38:07.615Z,25.69
2023-05-02T11:39:07.694Z,25.68
2023-05-02T11:40:07.710Z,25.66
2023-05-02T11:41:07.701Z,25.65
2023-05-02T11:42:07.757Z,25.64
2023-05-02T11:43:08.301Z,25.63
2023-05-02T11:44:07.790Z,25.63
2023-05-02T11:45:07.801Z,25.62
2023-05-02T11:46:07.896Z,25.63
2023-05-02T11:47:07.885Z,25.63
2023-05-02T11:48:08.004Z,25.62
2023-05-02T11:49:09.306Z,25.61
2023-05-02T11:50:07.991Z,25.59
2023-05-02T11:51:08.005Z,25.59
2023-05-02T11:52:08.054Z,25.59
2023-05-02T11:53:08.792Z,25.58
2023-05-02T11:54:08.072Z,25.57
2023-05-02T11:55:09.670Z,25.56
2023-05-02T11:56:08.053Z,25.57
2023-05-02T11:57:08.054Z,25.58
2023-05-02T11:58:08.076Z,25.58
2023-05-02T11:59:08.121Z,25.59
2023-05-02T12:00:08.249Z,25.60
2023-05-02T12:01:09.533Z,25.59
2023-05-02T12:02:08.290Z,25.58
2023-05-02T12:03:08.444Z,25.57
2023-05-02T12:04:08.449Z,25.57
2023-05-02T12:05:08.343Z,25.57
2023-05-02T12:06:08.398Z,25.57
2023-05-02T12:07:10.234Z,25.58
2023-05-02T12:08:08.374Z,25.59
2023-05-02T12:09:08.307Z,25.60
2023-05-02T12:10:08.324Z,25.61
2023-05-02T12:11:08.311Z,25.62
2023-05-02T12:12:08.287Z,25.63
2023-05-02T12:13:10.017Z,25.64
2023-05-02T12:14:08.289Z,25.62
2023-05-02T12:15:08.357Z,25.63
2023-05-02T12:16:08.423Z,25.62
2023-05-02T12:17:08.454Z,25.61
2023-05-02T12:18:08.578Z,25.61
2023-05-02T12:19:09.296Z,25.61
2023-05-02T12:20:08.556Z,25.61
2023-05-02T12:21:08.561Z,25.60
2023-05-02T12:22:08.587Z,25.60
2023-05-02T12:23:08.607Z,25.60
2023-05-02T12:24:08.632Z,25.60
2023-05-02T12:25:08.664Z,25.60
2023-05-02T12:26:08.722Z,25.60
2023-05-02T12:27:08.731Z,25.60
2023-05-02T12:28:08.752Z,25.60
2023-05-02T12:29:08.761Z,25.60
2023-05-02T12:30:08.810Z,25.60
2023-05-02T12:31:08.864Z,25.58
2023-05-02T12:32:08.783Z,25.58
2023-05-02T12:33:08.847Z,25.59
2023-05-02T12:34:08.879Z,25.59
2023-05-02T12:35:08.831Z,25.60
2023-05-02T12:36:08.835Z,25.60
2023-05-02T12:37:08.902Z,25.62
2023-05-02T12:38:08.910Z,25.63
2023-05-02T12:39:08.975Z,25.64
2023-05-02T12:40:09.041Z,25.64
2023-05-02T12:41:09.050Z,25.66
2023-05-02T12:42:09.128Z,25.66
2023-05-02T12:43:09.170Z,25.67
2023-05-02T12:44:09.219Z,25.68
2023-05-02T12:45:09.269Z,25.69
2023-05-02T12:46:09.329Z,25.71
2023-05-02T12:47:09.420Z,25.71
2023-05-02T12:48:09.403Z,25.72
2023-05-02T12:49:09.664Z,25.74
2023-05-02T12:50:09.468Z,25.75
2023-05-02T12:51:09.501Z,25.75
2023-05-02T12:52:09.606Z,25.76
2023-05-02T12:53:09.603Z,25.76